Terminal Aerodrome Forecast
Issued by NWS

Home | Current Version | Previous Version | Text Only | Print | Product List | Glossary On
Versions: 1 2 3 4 5 6 7 8 9 10 11 12 13 14 15 16 17 18
422
FTUS41 KBTV 272340
TAFRUT
TAF
KRUT 272340Z 2800/2824 23005KT P6SM OVC080
     FM280800 14004KT P6SM BKN060
     FM281500 15008KT P6SM OVC050
     FM282200 15009KT P6SM VCSH OVC035=

USA.gov is the U.S. government's official web portal to all federal, state and local government web resources and services.